Time;durP1;ratioP1;P1;durP2;ratioP2;P2;SDS_P1;SDS_P2;PMS_P1;PMS_P2;Temp;Humidity;BMP_temperature;BMP_pressure;BME280_temperature;BME280_humidity;BME280_pressure;Samples;Min_cycle;Max_cycle;Signal;HPM_P1;HPM_P2
2021/10/22 00:01:09;;;;;;;3.10;0.40;;;8.00;99.90;;;;;;4998516;28;20140;-69
2021/10/22 00:03:36;;;;;;;4.75;1.58;;;7.90;99.90;;;;;;5001675;28;20065;-71
2021/10/22 00:06:04;;;;;;;2.60;0.90;;;7.90;99.90;;;;;;5004724;28;20145;-67
2021/10/22 00:08:31;;;;;;;4.07;1.00;;;7.90;99.90;;;;;;5003924;28;20081;-69
2021/10/22 00:10:59;;;;;;;5.25;0.57;;;7.90;99.90;;;;;;5003372;28;20054;-68
2021/10/22 00:13:26;;;;;;;1.17;0.63;;;7.90;99.90;;;;;;5005618;28;20075;-70
2021/10/22 00:15:53;;;;;;;3.35;1.33;;;7.90;99.90;;;;;;4994346;28;20544;-69
2021/10/22 00:18:20;;;;;;;2.33;0.75;;;7.90;99.90;;;;;;5002316;28;20561;-70
2021/10/22 00:20:48;;;;;;;5.10;1.00;;;7.90;99.90;;;;;;4998553;28;20100;-69
2021/10/22 00:23:15;;;;;;;2.72;0.65;;;7.90;99.90;;;;;;5002533;28;20423;-68
2021/10/22 00:25:42;;;;;;;4.82;1.05;;;7.90;99.90;;;;;;5000996;28;20054;-65
2021/10/22 00:28:09;;;;;;;3.42;1.58;;;7.90;99.90;;;;;;4994840;28;20066;-66
2021/10/22 00:30:36;;;;;;;5.55;0.70;;;7.90;99.90;;;;;;5002961;28;20591;-65
2021/10/22 00:33:03;;;;;;;3.50;1.20;;;7.80;99.90;;;;;;5002172;28;20112;-67
2021/10/22 00:35:30;;;;;;;6.28;1.52;;;7.80;99.90;;;;;;5003837;28;20061;-67
2021/10/22 00:37:58;;;;;;;6.30;1.02;;;7.80;99.90;;;;;;5015645;28;20660;-68
2021/10/22 00:40:25;;;;;;;2.03;0.50;;;7.80;99.90;;;;;;5001708;28;20088;-69
2021/10/22 00:42:54;;;;;;;4.13;0.95;;;7.80;99.90;;;;;;4999045;28;20046;-68
2021/10/22 00:45:23;;;;;;;6.40;1.40;;;7.80;99.90;;;;;;5003437;28;20053;-70
2021/10/22 00:47:50;;;;;;;8.05;1.73;;;7.80;99.90;;;;;;5002645;28;20135;-68
2021/10/22 00:50:17;;;;;;;8.32;1.75;;;7.80;99.90;;;;;;5002045;28;20054;-67
2021/10/22 00:52:46;;;;;;;2.53;0.50;;;7.80;99.90;;;;;;5002296;28;20153;-68
2021/10/22 00:55:14;;;;;;;7.53;1.05;;;7.80;99.90;;;;;;5002352;28;20049;-68
2021/10/22 00:57:42;;;;;;;3.63;0.70;;;7.80;99.90;;;;;;5002710;28;20054;-71
2021/10/22 01:00:10;;;;;;;3.40;0.68;;;7.80;99.90;;;;;;4985195;28;20136;-69
2021/10/22 01:02:40;;;;;;;5.07;1.00;;;7.70;99.90;;;;;;5002010;28;20100;-70
2021/10/22 01:05:11;;;;;;;3.08;0.82;;;7.70;99.90;;;;;;5003877;28;20049;-68
2021/10/22 01:07:41;;;;;;;2.60;0.85;;;7.70;99.90;;;;;;5002903;28;20571;-68
2021/10/22 01:10:12;;;;;;;1.65;0.57;;;7.70;99.90;;;;;;4999053;28;20480;-72
2021/10/22 01:12:42;;;;;;;4.57;0.82;;;7.70;99.90;;;;;;5003991;28;20069;-71
2021/10/22 01:15:09;;;;;;;1.98;0.77;;;7.70;99.90;;;;;;5007605;28;20077;-70
2021/10/22 01:17:39;;;;;;;4.38;0.95;;;7.60;99.90;;;;;;5003183;28;20111;-68
2021/10/22 01:20:12;;;;;;;2.58;0.60;;;7.70;99.90;;;;;;5003538;28;20410;-72
2021/10/22 01:22:40;;;;;;;2.42;0.47;;;7.70;99.90;;;;;;4997271;28;20046;-69
2021/10/22 01:25:09;;;;;;;2.03;0.68;;;7.60;99.90;;;;;;4997818;28;20137;-70
2021/10/22 01:27:36;;;;;;;3.28;0.63;;;7.60;99.90;;;;;;5000467;28;20129;-70
2021/10/22 01:30:06;;;;;;;2.90;0.85;;;7.60;99.90;;;;;;5002955;28;20069;-69
2021/10/22 01:32:33;;;;;;;8.18;2.13;;;7.60;99.90;;;;;;5002010;28;20046;-67
2021/10/22 01:35:01;;;;;;;4.32;1.20;;;7.50;99.90;;;;;;5002947;28;20062;-68
2021/10/22 01:37:28;;;;;;;3.78;1.00;;;7.50;99.90;;;;;;5001749;28;20050;-71
2021/10/22 01:39:55;;;;;;;2.63;0.77;;;7.50;99.90;;;;;;5001867;28;20069;-69
2021/10/22 01:42:23;;;;;;;3.15;1.90;;;7.40;99.90;;;;;;5003085;28;20111;-70
2021/10/22 01:44:51;;;;;;;1.92;0.98;;;7.40;99.90;;;;;;5000670;28;20120;-70
2021/10/22 01:47:19;;;;;;;4.63;1.20;;;7.40;99.90;;;;;;5002960;28;20072;-67
2021/10/22 01:49:46;;;;;;;3.83;1.13;;;7.40;99.90;;;;;;4997649;28;20055;-67
2021/10/22 01:52:14;;;;;;;2.88;0.82;;;7.40;99.90;;;;;;5002813;28;20146;-67
2021/10/22 01:54:41;;;;;;;3.25;1.00;;;7.40;99.90;;;;;;5002393;28;20085;-68
2021/10/22 01:57:10;;;;;;;2.05;0.90;;;7.30;99.90;;;;;;4998553;28;20137;-68
2021/10/22 01:59:39;;;;;;;3.35;0.70;;;7.40;99.90;;;;;;4998328;28;20061;-68
2021/10/22 02:02:06;;;;;;;3.60;1.13;;;7.30;99.90;;;;;;5003249;28;20046;-67
2021/10/22 02:04:34;;;;;;;1.70;0.73;;;7.30;99.90;;;;;;4999198;28;20062;-67
2021/10/22 02:07:01;;;;;;;1.08;0.52;;;7.30;99.90;;;;;;5000140;28;20488;-66
2021/10/22 02:09:28;;;;;;;4.70;1.23;;;7.30;99.90;;;;;;5003702;28;20104;-68
2021/10/22 02:11:55;;;;;;;4.28;1.00;;;7.30;99.90;;;;;;5004149;28;20073;-66
2021/10/22 02:14:22;;;;;;;4.07;0.73;;;7.30;99.90;;;;;;5000725;28;20337;-66
2021/10/22 02:16:49;;;;;;;6.55;1.75;;;7.30;99.90;;;;;;5001699;28;20530;-69
2021/10/22 02:19:16;;;;;;;3.85;1.85;;;7.20;99.90;;;;;;4995145;28;20046;-66
2021/10/22 02:21:43;;;;;;;4.43;1.25;;;7.20;99.90;;;;;;4999282;28;20081;-66
2021/10/22 02:24:10;;;;;;;5.05;1.90;;;7.20;99.90;;;;;;5000591;28;20046;-66
2021/10/22 02:26:37;;;;;;;4.30;0.88;;;7.30;99.90;;;;;;5001883;28;20061;-72
2021/10/22 02:29:04;;;;;;;0.75;0.68;;;7.20;99.90;;;;;;5006567;28;20054;-67
2021/10/22 02:31:31;;;;;;;4.90;1.17;;;7.20;99.90;;;;;;5003642;28;20070;-67
2021/10/22 02:33:58;;;;;;;4.25;0.75;;;7.20;99.90;;;;;;5008163;28;20046;-68
2021/10/22 02:36:25;;;;;;;6.47;1.00;;;7.20;99.90;;;;;;5006048;28;20099;-68
2021/10/22 02:38:52;;;;;;;3.38;1.10;;;7.20;99.90;;;;;;5007510;28;20138;-66
2021/10/22 02:41:19;;;;;;;2.72;0.70;;;7.20;99.90;;;;;;5007045;28;20069;-70
2021/10/22 02:43:48;;;;;;;2.30;0.77;;;7.10;99.90;;;;;;5011974;28;20065;-68
2021/10/22 02:46:16;;;;;;;4.75;1.42;;;7.10;99.90;;;;;;5005191;28;20137;-67
2021/10/22 02:48:43;;;;;;;3.22;1.00;;;7.10;99.90;;;;;;4998100;28;20050;-66
2021/10/22 02:51:11;;;;;;;3.67;1.40;;;7.00;99.90;;;;;;5007435;28;20077;-67
2021/10/22 02:53:38;;;;;;;4.35;0.73;;;7.00;99.90;;;;;;5001402;28;20042;-68
2021/10/22 02:56:05;;;;;;;3.33;1.00;;;7.00;99.90;;;;;;5003575;28;20065;-68
2021/10/22 02:58:32;;;;;;;2.65;1.50;;;7.00;99.90;;;;;;5002741;28;20074;-65
2021/10/22 03:01:00;;;;;;;5.90;0.70;;;7.00;99.90;;;;;;5002936;28;20144;-69
2021/10/22 03:03:27;;;;;;;7.15;1.20;;;7.00;99.90;;;;;;5001019;28;20140;-66
2021/10/22 03:05:54;;;;;;;3.95;2.53;;;7.00;99.90;;;;;;5004555;28;20105;-68
2021/10/22 03:08:20;;;;;;;2.95;1.20;;;7.00;99.90;;;;;;5007242;28;20088;-69
2021/10/22 03:10:47;;;;;;;3.38;1.10;;;6.90;99.90;;;;;;5002050;28;20112;-66
2021/10/22 03:13:14;;;;;;;2.17;0.88;;;6.90;99.90;;;;;;5006083;28;20086;-68
2021/10/22 03:15:41;;;;;;;2.38;0.80;;;6.90;99.90;;;;;;5002746;28;20049;-68
2021/10/22 03:18:08;;;;;;;6.97;1.27;;;6.90;99.90;;;;;;5005992;28;20065;-67
2021/10/22 03:20:35;;;;;;;2.33;0.93;;;6.90;99.90;;;;;;4995147;28;20069;-67
2021/10/22 03:23:04;;;;;;;4.55;2.35;;;6.90;99.90;;;;;;5006617;28;20108;-67
2021/10/22 03:25:31;;;;;;;4.32;0.70;;;6.90;99.90;;;;;;5007929;28;20690;-67
2021/10/22 03:28:04;;;;;;;4.45;0.85;;;6.90;99.90;;;;;;5004485;28;20515;-65
2021/10/22 03:30:35;;;;;;;3.83;1.05;;;6.90;99.90;;;;;;5000781;28;20491;-68
2021/10/22 03:33:04;;;;;;;1.73;0.70;;;7.00;99.90;;;;;;5000490;28;20069;-68
2021/10/22 03:35:31;;;;;;;3.33;0.68;;;7.00;99.90;;;;;;5003809;28;20101;-68
2021/10/22 03:37:58;;;;;;;7.97;1.13;;;7.00;99.90;;;;;;5000547;28;20065;-71
2021/10/22 03:40:25;;;;;;;8.63;1.55;;;7.00;99.90;;;;;;5003335;28;20058;-66
2021/10/22 03:42:57;;;;;;;3.80;1.55;;;7.00;99.90;;;;;;5003189;28;20042;-67
2021/10/22 03:45:25;;;;;;;8.10;2.65;;;7.00;99.90;;;;;;5001598;28;20050;-66
2021/10/22 03:47:54;;;;;;;3.33;1.25;;;7.00;99.90;;;;;;5007170;28;20099;-68
2021/10/22 03:50:22;;;;;;;2.58;1.02;;;7.00;99.90;;;;;;5005934;28;20443;-66
2021/10/22 03:52:49;;;;;;;4.35;0.90;;;7.00;99.90;;;;;;5002399;28;20060;-67
2021/10/22 03:55:16;;;;;;;6.72;2.80;;;7.00;99.90;;;;;;5005758;28;20741;-66
2021/10/22 03:57:43;;;;;;;2.83;1.45;;;6.90;99.90;;;;;;5005366;28;20046;-66
2021/10/22 04:00:11;;;;;;;3.15;0.60;;;6.90;99.90;;;;;;5001514;28;20396;-68
2021/10/22 04:02:39;;;;;;;4.60;1.60;;;6.90;99.90;;;;;;5000308;28;20719;-66
2021/10/22 04:05:07;;;;;;;2.40;0.52;;;6.90;99.90;;;;;;5004569;28;20045;-71
2021/10/22 04:07:36;;;;;;;2.20;1.00;;;7.00;99.90;;;;;;5001796;28;20046;-67
2021/10/22 04:10:05;;;;;;;9.00;1.35;;;6.90;99.90;;;;;;5002319;28;20119;-69
2021/10/22 04:12:33;;;;;;;2.88;1.80;;;6.90;99.90;;;;;;4999021;28;20637;-69
2021/10/22 04:15:00;;;;;;;4.95;0.65;;;6.90;99.90;;;;;;5002409;28;20696;-67
2021/10/22 04:17:28;;;;;;;2.17;1.02;;;6.90;99.90;;;;;;5003164;28;20116;-67
2021/10/22 04:19:55;;;;;;;5.55;0.80;;;7.00;99.90;;;;;;5002025;28;20042;-66
2021/10/22 04:22:23;;;;;;;2.67;1.13;;;6.90;99.90;;;;;;5005716;28;20132;-66
2021/10/22 04:24:50;;;;;;;3.50;0.75;;;6.90;99.90;;;;;;4999809;28;20108;-65
2021/10/22 04:27:16;;;;;;;5.78;1.10;;;6.90;99.90;;;;;;4999352;28;20137;-66
2021/10/22 04:29:44;;;;;;;3.72;1.75;;;6.90;99.90;;;;;;4987438;28;20493;-66
2021/10/22 04:32:11;;;;;;;5.70;2.80;;;6.90;99.90;;;;;;5004316;28;20080;-67
2021/10/22 04:34:38;;;;;;;7.78;0.98;;;6.90;99.90;;;;;;5001265;28;20152;-66
2021/10/22 04:42:45;;;;;;;2.75;1.05;;;6.90;99.90;;;;;;5001166;28;20057;-67
2021/10/22 04:45:12;;;;;;;2.28;0.50;;;6.90;99.90;;;;;;5003337;28;20108;-71
2021/10/22 04:47:39;;;;;;;2.13;0.82;;;6.80;99.90;;;;;;5004307;28;20129;-68
2021/10/22 04:50:09;;;;;;;4.75;1.40;;;6.80;99.90;;;;;;5003196;28;20145;-68
2021/10/22 04:52:37;;;;;;;4.68;0.73;;;6.90;99.90;;;;;;5001507;28;20497;-70
2021/10/22 04:55:06;;;;;;;2.20;1.75;;;6.90;99.90;;;;;;5004087;28;20451;-66
2021/10/22 04:57:33;;;;;;;2.17;0.82;;;6.90;99.90;;;;;;4994901;28;20172;-66
2021/10/22 05:00:00;;;;;;;1.88;0.50;;;6.90;99.90;;;;;;5001337;28;20046;-71
2021/10/22 05:02:29;;;;;;;5.45;1.13;;;6.90;99.90;;;;;;5004473;28;20774;-67
2021/10/22 05:04:56;;;;;;;1.80;0.80;;;6.80;99.90;;;;;;5004018;28;20045;-65
2021/10/22 05:07:23;;;;;;;3.15;1.08;;;6.80;99.90;;;;;;5002590;28;20124;-68
2021/10/22 05:09:50;;;;;;;2.80;0.60;;;6.90;99.90;;;;;;5000689;28;20096;-70
2021/10/22 05:12:17;;;;;;;3.30;0.98;;;6.90;99.90;;;;;;5004748;28;20120;-66
2021/10/22 05:14:44;;;;;;;3.80;0.85;;;6.80;99.90;;;;;;5001968;28;20144;-68
2021/10/22 05:17:11;;;;;;;2.97;0.95;;;6.80;99.90;;;;;;4997845;28;20168;-65
2021/10/22 05:19:38;;;;;;;3.80;0.93;;;6.80;99.90;;;;;;5001514;28;20058;-66
2021/10/22 05:22:05;;;;;;;7.18;1.50;;;6.80;99.90;;;;;;5002516;28;20426;-70
2021/10/22 05:24:32;;;;;;;8.13;1.23;;;6.80;99.90;;;;;;5003081;28;20207;-65
2021/10/22 05:26:59;;;;;;;5.78;1.42;;;6.70;99.90;;;;;;5002524;28;20050;-73
2021/10/22 05:29:26;;;;;;;5.75;1.25;;;6.70;99.90;;;;;;5003160;28;20489;-66
2021/10/22 05:31:53;;;;;;;6.28;1.85;;;6.70;99.90;;;;;;5001529;28;20575;-72
2021/10/22 05:34:21;;;;;;;22.00;2.40;;;6.70;99.90;;;;;;5005342;28;20137;-68
2021/10/22 05:36:49;;;;;;;4.72;1.13;;;6.80;99.90;;;;;;4993071;28;20085;-67
2021/10/22 05:39:18;;;;;;;9.13;1.92;;;6.80;99.90;;;;;;5004005;28;20053;-72
2021/10/22 05:41:46;;;;;;;2.30;1.00;;;6.80;99.90;;;;;;5002105;28;20081;-69
2021/10/22 05:44:15;;;;;;;4.53;1.40;;;6.80;99.90;;;;;;4997339;28;20050;-68
2021/10/22 05:46:42;;;;;;;4.07;1.48;;;6.80;99.90;;;;;;4995524;28;20085;-65
2021/10/22 05:49:08;;;;;;;5.57;1.38;;;6.80;99.90;;;;;;5001034;28;20141;-69
2021/10/22 05:51:36;;;;;;;3.08;1.52;;;6.80;99.90;;;;;;5004675;28;20069;-66
2021/10/22 05:54:02;;;;;;;8.07;1.20;;;6.80;99.90;;;;;;5001655;28;20080;-66
2021/10/22 05:56:29;;;;;;;1.27;0.73;;;6.80;99.90;;;;;;5001742;28;20124;-68
2021/10/22 05:58:56;;;;;;;11.07;2.50;;;6.80;99.90;;;;;;5000492;28;20149;-65
2021/10/22 06:01:23;;;;;;;7.78;1.83;;;6.80;99.90;;;;;;5000410;28;20515;-68
2021/10/22 06:03:55;;;;;;;6.05;1.00;;;6.90;99.90;;;;;;5007829;28;20092;-66
2021/10/22 06:06:22;;;;;;;6.15;0.90;;;6.90;99.90;;;;;;5005501;28;20096;-67
2021/10/22 06:08:50;;;;;;;3.38;1.70;;;6.90;99.90;;;;;;5005382;28;20046;-72
2021/10/22 06:11:18;;;;;;;6.25;1.25;;;6.90;99.90;;;;;;4999566;28;20138;-71
2021/10/22 06:13:45;;;;;;;7.65;1.95;;;6.90;99.90;;;;;;4992487;28;20421;-70
2021/10/22 06:16:13;;;;;;;2.20;0.85;;;6.90;99.90;;;;;;4979172;28;20138;-67
2021/10/22 06:18:48;;;;;;;3.65;1.10;;;6.90;99.90;;;;;;4971524;28;20111;-70
2021/10/22 06:24:07;;;;;;;7.75;1.05;;;6.90;99.90;;;;;;4989867;28;20590;-70
2021/10/22 06:26:38;;;;;;;10.90;2.28;;;6.90;99.90;;;;;;4971125;28;20124;-77
2021/10/22 06:29:07;;;;;;;8.68;1.38;;;6.90;99.90;;;;;;4976753;28;20542;-70
2021/10/22 06:31:38;;;;;;;11.07;2.63;;;6.90;99.90;;;;;;4995319;28;20089;-69
2021/10/22 06:34:05;;;;;;;7.40;1.58;;;6.90;99.90;;;;;;5004195;28;20041;-66
2021/10/22 06:36:32;;;;;;;8.48;1.75;;;6.90;99.90;;;;;;5002052;28;20084;-66
2021/10/22 06:39:00;;;;;;;5.30;1.55;;;6.90;99.90;;;;;;5003746;28;20546;-68
2021/10/22 06:41:31;;;;;;;6.30;2.13;;;6.90;99.90;;;;;;4988426;28;20062;-69
2021/10/22 06:43:59;;;;;;;7.13;1.65;;;6.90;99.90;;;;;;4989255;28;20602;-70
2021/10/22 06:46:26;;;;;;;8.32;1.83;;;7.00;99.90;;;;;;4985153;28;20803;-68
2021/10/22 06:48:54;;;;;;;5.63;1.85;;;6.90;99.90;;;;;;4997049;28;20145;-66
2021/10/22 06:51:22;;;;;;;12.35;1.92;;;7.00;99.90;;;;;;5006561;28;20647;-70
2021/10/22 06:53:49;;;;;;;7.80;1.50;;;6.90;99.90;;;;;;5005126;28;21206;-68
2021/10/22 06:56:17;;;;;;;7.68;2.13;;;6.90;99.90;;;;;;5003604;28;20058;-69
2021/10/22 06:58:44;;;;;;;5.43;1.15;;;7.00;99.90;;;;;;5003001;28;20045;-70
2021/10/22 07:01:11;;;;;;;8.05;1.23;;;7.10;99.90;;;;;;5005675;28;20065;-65
2021/10/22 07:03:39;;;;;;;6.50;1.10;;;7.10;99.90;;;;;;4989685;28;20054;-72
2021/10/22 07:08:54;;;;;;;7.10;1.30;;;7.10;99.90;;;;;;5002270;28;20056;-67
2021/10/22 07:11:22;;;;;;;9.23;2.00;;;7.10;99.90;;;;;;5000482;28;20077;-72
2021/10/22 07:13:54;;;;;;;5.32;1.42;;;7.20;99.90;;;;;;5005553;28;20053;-71
2021/10/22 07:16:24;;;;;;;7.13;2.15;;;7.20;99.90;;;;;;5005220;28;20104;-69
2021/10/22 07:18:51;;;;;;;9.18;1.67;;;7.20;99.90;;;;;;5004548;28;20053;-66
2021/10/22 07:21:19;;;;;;;5.55;1.48;;;7.20;99.90;;;;;;5007507;28;20045;-66
2021/10/22 07:23:48;;;;;;;13.93;2.30;;;7.20;99.90;;;;;;5005994;28;20054;-66
2021/10/22 07:26:18;;;;;;;5.03;1.73;;;7.30;99.90;;;;;;5006008;28;20461;-67
2021/10/22 07:28:45;;;;;;;5.95;2.10;;;7.30;99.90;;;;;;5003076;28;20092;-69
2021/10/22 07:31:13;;;;;;;5.18;1.40;;;7.30;99.90;;;;;;5005112;28;20258;-65
2021/10/22 07:33:41;;;;;;;4.53;1.02;;;7.20;99.90;;;;;;5007440;28;20048;-69
2021/10/22 07:36:13;;;;;;;8.73;1.60;;;7.30;99.90;;;;;;5003857;28;20054;-66
2021/10/22 07:38:43;;;;;;;4.95;1.45;;;7.30;99.90;;;;;;5002228;28;20520;-69
2021/10/22 07:41:14;;;;;;;12.82;1.95;;;7.40;99.90;;;;;;5006340;28;20061;-65
2021/10/22 07:43:43;;;;;;;10.38;2.33;;;7.40;99.90;;;;;;5002878;28;20054;-68
2021/10/22 07:46:10;;;;;;;4.22;1.40;;;7.40;99.90;;;;;;5003990;28;20065;-69
2021/10/22 07:48:39;;;;;;;6.82;2.03;;;7.40;99.90;;;;;;5002977;28;20048;-66
2021/10/22 07:51:05;;;;;;;6.00;2.15;;;7.50;99.90;;;;;;5002715;28;20137;-65
2021/10/22 07:53:32;;;;;;;3.97;1.58;;;7.40;99.90;;;;;;5003583;28;20077;-68
2021/10/22 07:56:03;;;;;;;9.83;2.03;;;7.50;99.90;;;;;;5002172;28;20054;-67
2021/10/22 07:58:30;;;;;;;8.95;1.63;;;7.50;99.90;;;;;;5001146;28;20053;-67
2021/10/22 08:00:58;;;;;;;7.28;1.75;;;7.40;99.90;;;;;;5003670;28;20084;-65
2021/10/22 08:03:25;;;;;;;7.50;1.73;;;7.50;99.90;;;;;;5006466;28;20046;-65
2021/10/22 08:05:53;;;;;;;8.63;2.17;;;7.50;99.90;;;;;;5003955;28;20045;-65
2021/10/22 08:08:20;;;;;;;8.38;2.20;;;7.60;99.90;;;;;;5004437;28;20429;-65
2021/10/22 08:10:47;;;;;;;7.78;2.47;;;7.60;99.90;;;;;;5000290;28;20057;-65
2021/10/22 08:13:14;;;;;;;14.18;3.05;;;7.60;99.90;;;;;;5003147;28;20121;-65
2021/10/22 08:15:45;;;;;;;17.00;2.83;;;7.60;99.90;;;;;;5004553;28;20042;-65
2021/10/22 08:18:13;;;;;;;9.77;2.40;;;7.50;99.90;;;;;;5003172;28;20046;-66
2021/10/22 08:20:49;;;;;;;9.77;1.83;;;7.50;99.90;;;;;;5002187;28;20558;-68
2021/10/22 08:23:18;;;;;;;8.05;1.73;;;7.50;99.90;;;;;;5007626;28;20045;-65
2021/10/22 08:25:46;;;;;;;8.07;2.20;;;7.50;99.90;;;;;;5002694;28;20121;-65
2021/10/22 08:28:13;;;;;;;9.07;1.73;;;7.50;99.90;;;;;;5002872;28;20139;-65
2021/10/22 08:30:40;;;;;;;7.97;1.65;;;7.60;99.90;;;;;;5002738;28;20650;-70
2021/10/22 08:33:11;;;;;;;11.15;1.75;;;7.70;99.90;;;;;;5003740;28;20050;-66
2021/10/22 08:35:38;;;;;;;9.88;1.65;;;7.70;99.90;;;;;;5000859;28;20045;-66
2021/10/22 08:38:08;;;;;;;6.15;1.75;;;7.70;99.90;;;;;;5004332;28;20119;-67
2021/10/22 08:40:37;;;;;;;6.97;1.70;;;7.70;99.90;;;;;;5000735;28;20145;-65
2021/10/22 08:43:04;;;;;;;8.10;1.67;;;7.70;99.90;;;;;;5005031;28;20077;-65
2021/10/22 08:45:36;;;;;;;9.52;1.98;;;7.70;99.90;;;;;;5003839;28;20075;-67
2021/10/22 08:48:04;;;;;;;8.77;2.60;;;7.70;99.90;;;;;;5003992;28;20545;-68
2021/10/22 08:50:31;;;;;;;4.38;2.10;;;7.70;99.90;;;;;;5002358;28;20050;-66
2021/10/22 08:52:58;;;;;;;4.45;2.42;;;7.70;99.90;;;;;;5003823;28;20066;-67
2021/10/22 08:55:25;;;;;;;4.82;1.65;;;7.80;99.90;;;;;;5002780;28;20057;-69
2021/10/22 08:57:52;;;;;;;7.35;2.05;;;7.90;99.90;;;;;;5005661;28;20639;-65
2021/10/22 09:00:22;;;;;;;8.32;3.03;;;7.80;99.90;;;;;;5002363;28;20124;-67
2021/10/22 09:03:06;;;;;;;7.20;1.17;;;7.80;99.90;;;;;;5001785;28;20186;-72
2021/10/22 09:05:33;;;;;;;11.10;1.77;;;7.90;99.90;;;;;;5004989;28;20119;-66
2021/10/22 09:08:05;;;;;;;6.22;1.85;;;7.90;99.90;;;;;;5004283;28;20131;-72
2021/10/22 09:10:35;;;;;;;5.32;1.98;;;8.00;99.90;;;;;;5001390;28;20053;-72
2021/10/22 09:13:04;;;;;;;3.30;1.73;;;7.90;99.90;;;;;;5003706;28;20050;-64
2021/10/22 09:15:40;;;;;;;7.38;2.40;;;7.80;99.90;;;;;;5002543;28;20415;-66
2021/10/22 09:18:18;;;;;;;6.35;1.40;;;7.80;99.90;;;;;;5005377;28;20077;-64
2021/10/22 09:20:54;;;;;;;4.80;1.60;;;7.80;99.90;;;;;;4998173;28;20089;-65
2021/10/22 09:23:47;;;;;;;10.07;1.63;;;7.90;99.90;;;;;;5003152;28;20057;-66
2021/10/22 09:26:19;;;;;;;5.43;1.20;;;7.90;99.90;;;;;;5002843;28;20510;-65
2021/10/22 09:28:47;;;;;;;7.43;2.03;;;7.90;99.90;;;;;;5000741;28;20112;-66
2021/10/22 09:31:17;;;;;;;12.90;2.13;;;7.90;99.90;;;;;;5003664;28;20068;-66
2021/10/22 09:33:59;;;;;;;6.30;1.60;;;7.90;99.90;;;;;;5004248;28;20061;-66
2021/10/22 09:36:36;;;;;;;5.47;1.13;;;7.80;99.90;;;;;;4998842;28;20507;-67
2021/10/22 09:39:23;;;;;;;8.63;1.40;;;7.90;99.90;;;;;;4996822;28;20054;-65
2021/10/22 09:41:59;;;;;;;7.20;1.48;;;7.90;99.90;;;;;;5002020;28;20507;-66
2021/10/22 09:44:30;;;;;;;7.45;1.63;;;8.10;99.90;;;;;;4995481;28;20100;-65
2021/10/22 09:47:06;;;;;;;7.95;1.42;;;8.20;99.90;;;;;;5002775;28;20456;-67
2021/10/22 09:49:47;;;;;;;5.28;1.60;;;8.20;99.90;;;;;;5001441;28;20050;-67
2021/10/22 09:52:26;;;;;;;8.70;1.45;;;8.20;99.90;;;;;;5002279;28;20064;-66
2021/10/22 09:55:10;;;;;;;9.18;1.67;;;8.20;99.90;;;;;;5002980;28;20159;-65
2021/10/22 09:57:38;;;;;;;7.43;1.63;;;8.10;99.90;;;;;;4999369;28;20575;-68
2021/10/22 10:00:07;;;;;;;5.32;1.02;;;8.20;99.90;;;;;;5001922;28;20038;-65
2021/10/22 10:02:38;;;;;;;6.63;1.35;;;8.10;99.90;;;;;;5011922;28;20105;-68
2021/10/22 10:05:07;;;;;;;6.47;1.45;;;8.10;99.90;;;;;;5004381;28;20068;-66
2021/10/22 10:07:40;;;;;;;8.77;1.77;;;8.10;99.90;;;;;;5003515;28;20120;-68
2021/10/22 10:10:09;;;;;;;6.85;1.83;;;8.20;99.90;;;;;;5002317;28;20049;-65
2021/10/22 10:12:40;;;;;;;3.75;0.95;;;8.20;99.90;;;;;;5002739;28;20155;-68
2021/10/22 10:15:10;;;;;;;6.60;1.08;;;8.20;99.90;;;;;;5000527;28;20480;-65
2021/10/22 10:17:48;;;;;;;2.72;0.82;;;8.30;99.90;;;;;;4995967;28;20408;-65
2021/10/22 10:20:23;;;;;;;9.77;1.95;;;8.20;99.90;;;;;;5002339;28;20050;-68
2021/10/22 10:22:52;;;;;;;10.88;1.17;;;8.20;99.90;;;;;;4997121;28;20076;-68
2021/10/22 10:25:21;;;;;;;3.75;1.25;;;8.20;99.90;;;;;;5000638;28;20054;-68
2021/10/22 10:27:50;;;;;;;10.77;1.23;;;8.20;99.90;;;;;;5000312;28;20125;-65
2021/10/22 10:30:30;;;;;;;9.90;2.63;;;8.20;99.90;;;;;;5002201;28;20119;-67
2021/10/22 10:32:57;;;;;;;4.10;1.00;;;8.30;99.90;;;;;;5008124;28;20050;-68
2021/10/22 10:35:32;;;;;;;3.33;1.10;;;8.30;99.90;;;;;;5011932;28;20041;-68
2021/10/22 10:37:59;;;;;;;2.92;0.80;;;8.40;99.90;;;;;;4997825;28;20700;-66
2021/10/22 10:40:28;;;;;;;5.00;1.30;;;8.60;99.90;;;;;;4998916;28;20069;-67
2021/10/22 10:43:15;;;;;;;4.32;0.90;;;8.70;99.90;;;;;;5002623;28;20041;-67
2021/10/22 10:45:43;;;;;;;2.83;1.02;;;8.60;99.90;;;;;;4994665;28;20153;-65
2021/10/22 10:48:18;;;;;;;9.48;1.58;;;8.60;99.90;;;;;;5001488;28;20042;-69
2021/10/22 10:51:03;;;;;;;6.88;0.93;;;8.50;99.90;;;;;;5004276;28;20534;-67
2021/10/22 10:53:38;;;;;;;6.85;1.02;;;8.50;99.90;;;;;;5006615;28;20646;-66
2021/10/22 10:56:31;;;;;;;2.03;0.73;;;8.60;99.90;;;;;;5000089;28;20042;-64
2021/10/22 10:58:58;;;;;;;7.70;1.33;;;8.60;99.90;;;;;;5001403;28;20713;-65
2021/10/22 11:01:28;;;;;;;8.25;1.40;;;8.60;99.90;;;;;;5002843;28;20050;-67
2021/10/22 11:03:57;;;;;;;2.47;0.88;;;8.70;99.90;;;;;;5005621;28;20057;-68
2021/10/22 11:06:50;;;;;;;2.80;1.20;;;8.70;99.90;;;;;;5004110;28;20073;-66
2021/10/22 11:09:37;;;;;;;8.82;1.10;;;8.70;99.90;;;;;;4988414;28;20104;-67
2021/10/22 11:12:05;;;;;;;2.80;0.80;;;8.60;99.90;;;;;;5007260;28;20084;-66
2021/10/22 11:14:43;;;;;;;4.38;0.90;;;8.50;99.90;;;;;;5001314;28;20053;-71
2021/10/22 11:17:10;;;;;;;3.83;1.05;;;8.50;99.90;;;;;;5004990;28;20057;-68
2021/10/22 11:19:41;;;;;;;8.18;1.75;;;8.50;99.90;;;;;;5002521;28;20506;-68
2021/10/22 11:22:18;;;;;;;4.15;2.00;;;8.50;99.90;;;;;;5004336;28;20111;-65
2021/10/22 11:24:45;;;;;;;3.92;1.77;;;8.60;99.90;;;;;;5001480;28;20053;-69
2021/10/22 11:27:17;;;;;;;3.38;0.50;;;8.60;99.90;;;;;;5002977;28;20054;-65
2021/10/22 11:29:46;;;;;;;5.57;0.90;;;8.50;99.90;;;;;;5004098;28;20054;-67
2021/10/22 11:32:34;;;;;;;2.58;0.80;;;8.50;99.90;;;;;;5005261;28;20119;-65
2021/10/22 11:35:04;;;;;;;3.45;1.52;;;8.50;99.90;;;;;;5001634;28;20085;-66
2021/10/22 11:37:37;;;;;;;1.53;0.50;;;8.50;99.90;;;;;;5003630;28;20077;-67
2021/10/22 11:40:10;;;;;;;5.68;1.38;;;8.60;99.90;;;;;;5005363;28;20287;-65
2021/10/22 11:42:38;;;;;;;2.30;0.52;;;8.80;99.90;;;;;;5002210;28;20080;-66
2021/10/22 11:45:09;;;;;;;4.82;1.00;;;8.80;99.90;;;;;;5001355;28;20100;-66
2021/10/22 11:47:43;;;;;;;5.45;0.60;;;8.90;99.90;;;;;;5002642;28;20514;-65
2021/10/22 11:50:18;;;;;;;9.02;1.55;;;8.80;99.90;;;;;;5002218;28;20058;-68
2021/10/22 11:53:11;;;;;;;4.80;1.38;;;8.80;99.90;;;;;;4997294;28;20588;-66
2021/10/22 11:55:49;;;;;;;6.13;0.82;;;8.80;99.90;;;;;;5002166;28;20046;-68
2021/10/22 11:58:18;;;;;;;3.58;0.90;;;8.70;99.90;;;;;;5000989;28;20381;-68
2021/10/22 12:00:55;;;;;;;5.32;0.90;;;8.70;99.90;;;;;;4996804;28;20128;-68
2021/10/22 12:03:29;;;;;;;6.95;1.15;;;8.60;99.90;;;;;;4995365;28;20490;-65
2021/10/22 12:06:00;;;;;;;7.57;2.22;;;8.50;99.90;;;;;;5000305;28;21003;-69
2021/10/22 12:08:32;;;;;;;4.95;1.02;;;8.60;99.90;;;;;;5004749;28;20556;-65
2021/10/22 12:11:01;;;;;;;2.65;0.80;;;8.60;99.90;;;;;;4998711;28;20772;-68
2021/10/22 12:13:29;;;;;;;9.02;1.02;;;8.50;99.90;;;;;;5001646;28;20049;-68
2021/10/22 12:16:12;;;;;;;3.65;1.10;;;8.60;99.90;;;;;;5000509;28;20750;-64
2021/10/22 12:19:06;;;;;;;3.67;1.20;;;8.50;99.90;;;;;;5001738;28;20148;-67
2021/10/22 12:21:35;;;;;;;6.43;1.90;;;8.50;99.90;;;;;;5000355;28;20141;-66
2021/10/22 12:24:13;;;;;;;2.50;0.93;;;8.60;99.90;;;;;;5001343;28;20049;-68
2021/10/22 12:26:40;;;;;;;12.50;1.15;;;8.70;99.90;;;;;;4999252;28;20100;-70
2021/10/22 12:29:12;;;;;;;14.18;2.42;;;8.80;99.90;;;;;;4994755;28;20093;-67
2021/10/22 12:31:52;;;;;;;2.47;1.02;;;8.70;99.90;;;;;;4997871;28;20046;-66
2021/10/22 12:34:32;;;;;;;4.15;0.98;;;8.70;99.90;;;;;;5003234;28;20104;-65
2021/10/22 12:37:11;;;;;;;4.53;1.17;;;8.70;99.90;;;;;;4995801;28;20416;-67
2021/10/22 12:39:46;;;;;;;4.47;0.88;;;8.50;99.90;;;;;;4998244;28;20057;-66
2021/10/22 12:42:26;;;;;;;3.60;0.75;;;8.50;99.90;;;;;;4998269;28;20041;-66
2021/10/22 12:45:17;;;;;;;1.98;0.70;;;8.50;99.90;;;;;;5000314;28;20125;-66
2021/10/22 12:47:46;;;;;;;5.35;1.05;;;8.50;99.90;;;;;;4995848;28;20080;-67
2021/10/22 12:50:15;;;;;;;3.67;0.90;;;8.60;99.90;;;;;;4995792;28;20053;-66
2021/10/22 12:52:58;;;;;;;5.25;0.95;;;8.60;99.90;;;;;;4997667;28;20088;-67
2021/10/22 12:55:27;;;;;;;2.75;0.75;;;8.70;99.90;;;;;;4999715;28;20137;-68
2021/10/22 12:58:13;;;;;;;2.63;0.60;;;8.70;99.90;;;;;;4998908;28;20069;-70
2021/10/22 13:00:41;;;;;;;4.78;0.68;;;8.70;99.90;;;;;;5001976;28;20061;-67
2021/10/22 13:03:08;;;;;;;4.28;0.88;;;8.60;99.90;;;;;;4998146;28;20089;-68
2021/10/22 13:05:38;;;;;;;8.18;1.08;;;8.50;99.90;;;;;;4997437;28;20121;-70
2021/10/22 13:11:07;;;;;;;5.93;0.93;;;8.50;99.90;;;;;;5001037;28;20068;-69
2021/10/22 13:14:12;;;;;;;4.18;2.80;;;8.50;99.90;;;;;;4999713;28;20050;-68
2021/10/22 13:21:53;;;;;;;2.33;0.90;;;8.60;99.90;;;;;;4995940;28;20133;-66
2021/10/22 13:24:19;;;;;;;8.32;1.45;;;8.60;99.90;;;;;;4999106;28;20136;-67
2021/10/22 13:26:46;;;;;;;1.98;0.93;;;8.60;99.90;;;;;;4995814;28;20349;-65
2021/10/22 13:29:17;;;;;;;2.03;0.68;;;8.60;99.90;;;;;;4999331;28;20147;-65